Rogersville, TN (37857)

7:29 PM EDT on August 03, 2015 (GMT -0400)
Rogersville, TN | | Change Station
CLOSE
Current Station
Personal Weather Station
Location: Rogersville, TN
Elevation: 1345 ft
Nearby Weather Stations

Elev 1345 ft 36.40 °N, 83.03 °W | Updated 51 seconds ago

Partly Cloudy
Partly Cloudy
78.0 °F
Feels Like 80 °F
N
2.0
Wind Variable Wind from North
Gusts 6.0 mph

Today
High -- | Low -- °F
--% Chance of Precip.
Yesterday
High -- | Low -- °F
Precip. -- in
6:39 AM 8:36 PM
Waning Gibbous, 83% visible
Pressure 29.88 in
Visibility 10.0 miles
Clouds Few 23000 ft
Heat Index 80 °F
Dew Point 75 °F
Humidity 90%
Rainfall 0.00 in
Snow Depth Not available.
UV 1 out of 12
Pollen 5.10 out of 12
Air Quality Not available.
Flu Activity Not available.
METAR KTRI 032253Z 24008KT 10SM FEW230 31/12 A2996 RMK AO2 SLP119 T03060122

More Conditions Fewer Conditions

Pressure 29.88 in
Visibility 10.0 miles
Clouds Few 23000 ft
Heat Index 80 °F
Dew Point 75 °F
Humidity 90%
Rainfall 0.00 in
Snow Depth Not available.
UV 1 out of 12
Pollen 5.10 out of 12
Air Quality Not available.
Flu Activity Not available.
METAR KTRI 032253Z 24008KT 10SM FEW230 31/12 A2996 RMK AO2 SLP119 T03060122

More Conditions Fewer Conditions

10-Day Weather Forecast

×

Almanac

Astronomy

Aug. 03, 2015 Rise Set
Actual Time
Civil Twilight
Nautical Twilight
Astronomical Twilight
Moon
Length of Visible Light
Length of Day
Tomorrow will be .
, % of the Moon is Illuminated

Today's Extremes

State Highs State Lows

Community

WunderPhotos

Upload Photos

1,843,786 photos uploaded!

WunderBlogs® & News

Nearby

Air Quality

  Air Quality AQ Index Pollutant
Not available.

Snow Depth

Station Depth Elevation

Earthquake Activity

City Distance Mag. Time & Date
Minimum magnitude displayed is 2.5.

Coastal Water Temperatures

Place Temperature

Stations

Nearby Weather Stations

Station Location Temp. Windchill Dew Point Humidity Wind Precip. Elev Updated Type